Time;durP1;ratioP1;P1;durP2;ratioP2;P2;SDS_P1;SDS_P2;PMS_P1;PMS_P2;Temp;Humidity;BMP_temperature;BMP_pressure;BME280_temperature;BME280_humidity;BME280_pressure;Samples;Min_cycle;Max_cycle;Signal;HPM_P1;HPM_P2
2023/05/13 00:01:21;;;;;;;2.50;2.30;;;;;;;13.62;79.42;99226.81;7462173;39;20253;31
2023/05/13 00:06:57;;;;;;;3.90;1.90;;;;;;;13.70;79.37;99231.28;7462999;39;20238;31
2023/05/13 00:12:33;;;;;;;3.50;2.10;;;;;;;13.67;79.40;99228.97;7474684;38;20272;31
2023/05/13 00:22:54;;;;;;;3.37;2.40;;;;;;;13.58;79.41;99224.66;7439606;39;20285;31
2023/05/13 00:28:30;;;;;;;3.30;1.80;;;;;;;13.48;79.42;99220.34;7421868;39;20325;31
2023/05/13 00:34:06;;;;;;;5.10;2.37;;;;;;;13.40;78.73;99220.44;7426608;39;20247;31
2023/05/13 00:39:43;;;;;;;2.60;2.23;;;;;;;13.37;79.25;99228.09;7400237;39;20256;31
2023/05/13 00:45:19;;;;;;;2.90;2.60;;;;;;;13.29;78.99;99217.34;7366979;39;21046;31
2023/05/13 00:50:54;;;;;;;3.05;2.50;;;;;;;13.31;79.58;99223.41;7359235;39;20421;31
2023/05/13 00:56:32;;;;;;;2.20;2.00;;;;;;;13.30;79.01;99216.28;7367144;39;20354;31
2023/05/13 01:02:10;;;;;;;2.77;2.30;;;;;;;13.25;79.51;99211.44;7392434;39;20246;31
2023/05/13 01:07:43;;;;;;;6.80;2.35;;;;;;;13.21;79.85;99215.53;7398349;39;20239;31
2023/05/13 01:13:20;;;;;;;2.70;2.10;;;;;;;13.16;79.54;99212.56;7441408;39;20246;31
2023/05/13 01:18:56;;;;;;;4.10;2.00;;;;;;;13.10;79.36;99215.94;7441561;39;20238;31
2023/05/13 01:24:31;;;;;;;3.90;2.40;;;;;;;13.09;79.80;99217.81;7165021;39;21116;31
2023/05/13 01:30:05;;;;;;;3.35;2.20;;;;;;;13.15;79.87;99213.56;7485217;39;20257;31
2023/05/13 01:35:42;;;;;;;2.70;2.50;;;;;;;13.18;79.90;99210.50;7441520;39;20348;31
2023/05/13 01:41:17;;;;;;;2.50;2.30;;;;;;;13.18;80.02;99210.50;7426097;39;20246;31
2023/05/13 01:46:52;;;;;;;2.80;2.30;;;;;;;13.22;79.96;99211.81;7401058;39;21213;31
2023/05/13 01:52:26;;;;;;;3.60;2.50;;;;;;;13.17;81.18;99214.22;7395300;39;20257;31
2023/05/13 01:58:03;;;;;;;4.40;2.77;;;;;;;13.12;81.12;99216.63;7379567;39;20371;31
2023/05/13 02:03:24;;;;;;;4.83;2.90;;;;;;;13.08;81.62;99213.41;7459519;38;20351;31
2023/05/13 02:08:45;;;;;;;4.65;3.35;;;;;;;13.07;81.26;99219.03;7412786;39;20261;31
2023/05/13 02:14:21;;;;;;;4.00;3.43;;;;;;;12.99;81.99;99217.22;7425156;39;20238;31
2023/05/13 02:19:42;;;;;;;4.77;3.70;;;;;;;13.02;82.59;99229.56;7423349;39;21173;31
2023/05/13 02:25:17;;;;;;;4.40;3.40;;;;;;;12.95;82.54;99229.41;7448513;38;20329;31
2023/05/13 02:30:55;;;;;;;6.25;4.10;;;;;;;12.91;82.96;99240.78;7465879;39;20236;31
2023/05/13 02:36:31;;;;;;;5.07;3.90;;;;;;;12.82;83.38;99233.75;7486731;39;20332;31
2023/05/13 02:42:07;;;;;;;4.40;4.00;;;;;;;12.74;83.26;99223.84;7419952;39;20266;31
2023/05/13 02:47:43;;;;;;;4.97;4.10;;;;;;;12.71;82.90;99226.91;7388299;39;20307;31
2023/05/13 02:53:04;;;;;;;7.40;4.15;;;;;;;12.71;82.93;99231.47;7400128;39;20275;31
2023/05/13 02:58:36;;;;;;;5.40;4.40;;;;;;;12.62;83.36;99234.22;7396088;39;20343;31
2023/05/13 03:04:13;;;;;;;4.47;4.07;;;;;;;12.59;82.43;99234.56;7389191;39;20288;31
2023/05/13 03:09:48;;;;;;;5.57;4.63;;;;;;;12.58;83.14;99230.19;7401196;39;20261;31
2023/05/13 03:15:25;;;;;;;4.40;4.00;;;;;;;12.58;82.93;99240.19;7410509;39;20334;31
2023/05/13 03:21:01;;;;;;;4.73;3.70;;;;;;;12.55;82.70;99245.91;7412999;39;20220;31
2023/05/13 03:26:21;;;;;;;6.60;3.97;;;;;;;12.64;81.95;99250.25;7421762;39;20246;31
2023/05/13 03:31:54;;;;;;;6.43;4.13;;;;;;;12.58;82.16;99251.84;7447114;39;20388;31
2023/05/13 03:37:28;;;;;;;3.63;3.33;;;;;;;12.55;82.05;99249.47;7397370;39;21278;31
2023/05/13 03:47:50;;;;;;;5.40;3.85;;;;;;;12.59;81.23;99264.31;7376177;39;20267;31
2023/05/13 03:53:26;;;;;;;3.50;3.20;;;;;;;12.39;80.96;99265.78;7390596;39;22008;31
2023/05/13 03:59:01;;;;;;;4.57;3.87;;;;;;;12.32;81.19;99262.13;7383460;39;20250;31
2023/05/13 04:04:33;;;;;;;4.00;3.30;;;;;;;12.29;81.56;99267.00;7338011;39;20296;31
2023/05/13 04:10:09;;;;;;;4.00;3.30;;;;;;;12.23;81.55;99268.56;7402298;39;20235;31
2023/05/13 04:15:44;;;;;;;4.55;3.10;;;;;;;12.22;80.80;99266.03;7431207;39;20269;31
2023/05/13 04:21:18;;;;;;;4.60;3.10;;;;;;;12.26;80.72;99281.72;7444832;39;20257;31
2023/05/13 04:26:51;;;;;;;4.77;3.40;;;;;;;12.17;81.08;99280.91;7440429;39;20347;31
2023/05/13 04:37:28;;;;;;;3.75;3.30;;;;;;;12.31;81.88;99297.41;7419322;39;20247;31
2023/05/13 04:43:04;;;;;;;4.17;3.30;;;;;;;12.31;80.60;99297.41;7366308;39;20243;31
2023/05/13 04:48:39;;;;;;;5.30;3.07;;;;;;;12.34;81.18;99302.47;7422617;39;20257;31
2023/05/13 04:54:14;;;;;;;4.15;2.70;;;;;;;12.29;80.26;99297.56;7481549;39;20278;31
2023/05/13 04:59:50;;;;;;;3.87;2.60;;;;;;;12.24;80.30;99291.87;7465821;39;20467;31
2023/05/13 05:05:25;;;;;;;4.27;3.20;;;;;;;12.25;79.79;99292.69;7481996;39;20260;31
2023/05/13 05:11:00;;;;;;;3.45;2.90;;;;;;;12.31;79.88;99294.72;7421409;39;20238;31
2023/05/13 05:16:37;;;;;;;7.25;3.25;;;;;;;12.35;80.18;99296.03;7441948;39;20246;31
2023/05/13 05:21:58;;;;;;;3.47;2.70;;;;;;;12.51;79.47;99301.38;7419470;39;20232;31
2023/05/13 05:27:33;;;;;;;4.27;2.70;;;;;;;12.61;79.58;99310.09;7457174;39;20241;31
2023/05/13 05:33:09;;;;;;;3.27;2.93;;;;;;;12.73;79.55;99313.25;7439781;39;20337;31
2023/05/13 05:38:29;;;;;;;5.97;3.13;;;;;;;12.81;79.40;99326.75;7409172;39;20243;31
2023/05/13 05:43:49;;;;;;;4.65;2.83;;;;;;;12.94;78.79;99322.44;7402452;39;20330;31
2023/05/13 05:49:19;;;;;;;3.73;3.00;;;;;;;13.08;78.14;99323.50;7397521;39;20369;31
2023/05/13 05:59:56;;;;;;;4.10;3.10;;;;;;;13.29;76.45;99329.19;7382677;39;20254;31
2023/05/13 06:05:30;;;;;;;3.10;2.80;;;;;;;13.51;76.31;99328.28;7400230;39;21203;31
2023/05/13 06:16:08;;;;;;;3.50;2.90;;;;;;;13.78;74.95;99350.41;7522633;38;21110;31
2023/05/13 06:21:43;;;;;;;3.80;3.03;;;;;;;13.87;75.72;99342.03;7488505;39;20256;31
2023/05/13 06:27:17;;;;;;;3.20;2.90;;;;;;;14.02;74.65;99344.75;7419827;39;20319;31
2023/05/13 06:32:37;;;;;;;3.03;2.73;;;;;;;14.16;73.18;99345.81;7400400;39;20337;31
2023/05/13 06:38:16;;;;;;;3.15;2.85;;;;;;;14.19;71.86;99346.28;7338529;39;21135;31
2023/05/13 06:43:49;;;;;;;3.00;2.70;;;;;;;14.21;71.78;99337.97;7419420;39;20583;31
2023/05/13 06:49:24;;;;;;;4.90;2.90;;;;;;;14.16;71.03;99334.97;7439415;39;20258;31
2023/05/13 06:54:58;;;;;;;4.30;3.10;;;;;;;14.31;72.26;99341.22;7482760;38;20250;31
2023/05/13 07:00:30;;;;;;;3.98;2.56;;;;;;;14.55;70.08;99340.97;7511806;38;20368;31
2023/05/13 07:05:50;;;;;;;8.80;3.20;;;;;;;14.78;69.89;99349.00;7437484;39;20344;31
2023/05/13 07:11:27;;;;;;;4.15;3.40;;;;;;;14.96;70.37;99333.16;7426043;39;20374;31
2023/05/13 07:16:47;;;;;;;5.20;3.00;;;;;;;15.19;68.90;99339.22;7380218;39;21164;31
2023/05/13 07:22:19;;;;;;;4.40;2.80;;;;;;;15.34;67.25;99350.91;7392172;39;22238;31
2023/05/13 07:32:59;;;;;;;3.27;2.83;;;;;;;15.51;65.73;99340.63;7410094;39;20270;31
2023/05/13 07:43:22;;;;;;;3.87;2.77;;;;;;;15.77;66.99;99359.06;7414086;39;20270;31
2023/05/13 07:53:58;;;;;;;3.30;2.80;;;;;;;15.90;64.65;99355.59;7464332;39;20271;31
2023/05/13 07:59:16;;;;;;;3.90;3.00;;;;;;;15.88;66.77;99363.97;7193862;39;20339;31
2023/05/13 08:04:33;;;;;;;3.35;2.80;;;;;;;15.99;66.05;99347.13;7394978;39;20264;31
2023/05/13 08:10:05;;;;;;;3.90;3.30;;;;;;;16.21;64.97;99345.16;7398903;39;20260;31
2023/05/13 08:15:37;;;;;;;4.93;2.97;;;;;;;16.50;64.68;99347.66;7392383;39;20335;31
2023/05/13 08:21:09;;;;;;;5.03;2.93;;;;;;;16.36;64.89;99348.62;7447882;39;20275;31
2023/05/13 08:31:46;;;;;;;4.10;2.87;;;;;;;16.75;63.90;99339.03;7427769;39;20277;31
2023/05/13 08:42:25;;;;;;;3.40;3.00;;;;;;;17.07;62.08;99339.13;7438958;39;20280;31
2023/05/13 08:53:04;;;;;;;3.60;2.50;;;;;;;17.27;60.96;99352.81;7461084;39;20400;31
2023/05/13 09:03:43;;;;;;;3.07;2.50;;;;;;;17.38;58.73;99367.72;7464267;39;20271;31
2023/05/13 09:14:20;;;;;;;3.13;2.20;;;;;;;17.54;58.03;99360.00;7440286;39;20277;31
2023/05/13 09:24:55;;;;;;;4.27;2.87;;;;;;;17.74;58.57;99343.69;7436213;39;20356;31
2023/05/13 09:35:30;;;;;;;2.90;2.40;;;;;;;17.84;57.98;99337.84;7440787;39;20278;31
2023/05/13 09:41:05;;;;;;;4.33;2.37;;;;;;;18.01;58.20;99342.66;7420100;39;20249;31
2023/05/13 09:46:37;;;;;;;2.67;2.30;;;;;;;17.82;57.47;99338.03;7388874;39;22024;31
2023/05/13 09:52:12;;;;;;;2.67;2.20;;;;;;;17.55;56.82;99344.50;7425901;39;20360;31
2023/05/13 09:57:45;;;;;;;2.50;2.30;;;;;;;17.43;59.08;99340.69;7451779;39;21310;31
2023/05/13 10:03:20;;;;;;;2.70;2.40;;;;;;;17.48;59.46;99339.03;7431232;39;20247;31
2023/05/13 10:08:51;;;;;;;4.53;2.70;;;;;;;17.71;59.40;99337.81;7404313;39;20348;31
2023/05/13 10:14:26;;;;;;;3.60;2.60;;;;;;;18.14;60.51;99341.78;7386819;39;21281;31
2023/05/13 10:19:58;;;;;;;2.80;2.50;;;;;;;18.21;58.54;99336.34;7378042;39;21397;31
2023/05/13 10:25:29;;;;;;;2.90;2.60;;;;;;;18.12;58.61;99343.91;7431439;39;21932;31
2023/05/13 10:31:01;;;;;;;2.70;2.50;;;;;;;18.26;58.45;99339.25;7343250;39;21979;31
2023/05/13 10:36:38;;;;;;;3.40;2.50;;;;;;;18.43;58.59;99341.31;7356895;39;21899;31
2023/05/13 10:42:17;;;;;;;2.60;2.40;;;;;;;18.41;56.70;99328.94;7371527;39;21194;31
2023/05/13 10:48:04;;;;;;;3.00;2.70;;;;;;;18.56;57.33;99329.56;7367091;39;22005;31
2023/05/13 10:53:39;;;;;;;3.10;2.40;;;;;;;18.90;57.73;99315.59;7361295;39;21848;31
2023/05/13 10:59:17;;;;;;;4.40;3.40;;;;;;;19.22;56.32;99315.59;7400247;39;21917;31
2023/05/13 11:04:47;;;;;;;4.00;3.10;;;;;;;19.52;56.58;99316.72;7407500;39;22012;31
2023/05/13 11:10:40;;;;;;;4.20;2.40;;;;;;;19.61;55.01;99309.94;7408446;39;21184;31
2023/05/13 11:16:16;;;;;;;4.05;3.15;;;;;;;19.72;53.63;99302.88;7327581;39;21868;31
2023/05/13 11:27:02;;;;;;;3.43;2.80;;;;;;;19.77;55.31;99305.78;7376602;39;20267;31
2023/05/13 11:33:11;;;;;;;5.35;2.90;;;;;;;19.97;53.98;99305.59;7344919;39;22082;31
2023/05/13 11:38:37;;;;;;;3.30;3.00;;;;;;;19.96;55.23;99302.06;7358378;39;20247;31
2023/05/13 11:44:09;;;;;;;4.40;2.80;;;;;;;20.04;52.62;99300.91;7324682;39;20313;31
2023/05/13 11:49:50;;;;;;;3.60;2.60;;;;;;;19.74;53.71;99293.41;7371561;39;20242;31
2023/05/13 11:55:24;;;;;;;2.90;2.20;;;;;;;19.84;52.40;99292.03;7377293;39;20244;31
2023/05/13 12:00:56;;;;;;;2.93;2.50;;;;;;;20.05;53.89;99291.66;7361247;39;21477;31
2023/05/13 12:06:30;;;;;;;2.80;2.50;;;;;;;20.22;52.01;99290.00;7366577;39;21942;31
2023/05/13 12:12:02;;;;;;;3.15;2.30;;;;;;;20.08;53.46;99288.47;7337891;39;21276;31
2023/05/13 12:17:37;;;;;;;3.50;2.30;;;;;;;20.41;53.35;99288.12;7388803;39;20258;31
2023/05/13 12:23:14;;;;;;;2.60;2.40;;;;;;;20.14;54.10;99293.84;7367350;39;20314;31
2023/05/13 12:28:45;;;;;;;3.80;2.57;;;;;;;20.14;53.48;99293.84;7335246;39;21417;31
2023/05/13 12:34:17;;;;;;;3.35;2.60;;;;;;;20.20;52.40;99303.06;7388082;39;20326;31
2023/05/13 12:44:55;;;;;;;4.37;3.03;;;;;;;20.68;52.38;99278.53;7410044;39;20259;31
2023/05/13 12:50:12;;;;;;;2.60;2.40;;;;;;;20.87;52.24;99271.97;7383890;39;20256;31
2023/05/13 12:55:47;;;;;;;4.43;2.40;;;;;;;20.75;52.15;99276.56;7463115;38;20372;31
2023/05/13 13:01:23;;;;;;;2.58;2.30;;;;;;;20.88;52.99;99279.13;7440263;39;21986;31
2023/05/13 13:06:58;;;;;;;2.40;2.20;;;;;;;20.71;52.54;99291.78;7356062;39;21303;31
2023/05/13 13:12:15;;;;;;;2.83;2.50;;;;;;;20.90;53.29;99289.84;7356103;39;21540;31
2023/05/13 13:17:49;;;;;;;2.90;2.30;;;;;;;20.89;51.22;99288.16;7378537;39;21213;31
2023/05/13 13:28:41;;;;;;;3.55;2.40;;;;;;;20.11;53.03;99279.78;7461649;39;20515;31
2023/05/13 13:39:19;;;;;;;5.43;3.50;;;;;;;19.70;53.64;99294.88;7438910;39;20277;31
2023/05/13 13:44:51;;;;;;;6.30;2.95;;;;;;;19.20;56.79;99342.31;7400576;39;21943;31
2023/05/13 13:55:43;;;;;;;5.33;2.67;;;;;;;18.11;61.80;99301.31;7401657;39;20684;31
2023/05/13 14:01:01;;;;;;;3.27;2.90;;;;;;;18.23;62.00;99288.69;7429033;39;20256;31
2023/05/13 14:06:34;;;;;;;3.05;2.75;;;;;;;18.22;61.87;99278.81;7497712;38;20326;31
2023/05/13 14:12:10;;;;;;;4.77;2.90;;;;;;;18.27;63.81;99268.09;7488944;38;20415;31
2023/05/13 14:17:45;;;;;;;6.10;2.80;;;;;;;18.26;62.23;99258.22;7493572;38;20339;31
2023/05/13 14:23:03;;;;;;;3.00;2.70;;;;;;;18.51;62.23;99247.44;7443487;39;20258;31
2023/05/13 14:28:34;;;;;;;6.70;2.70;;;;;;;18.80;64.46;99246.91;7443579;39;20444;31
2023/05/13 14:33:52;;;;;;;2.65;2.45;;;;;;;19.06;63.21;99240.44;7423054;39;20240;31
2023/05/13 14:39:11;;;;;;;5.30;2.70;;;;;;;19.12;64.52;99236.00;7443866;39;21284;31
2023/05/13 14:44:45;;;;;;;2.65;2.45;;;;;;;19.36;62.84;99233.28;7467530;39;20246;31
2023/05/13 14:50:17;;;;;;;2.60;2.40;;;;;;;19.33;62.10;99241.09;7200471;39;20341;31
2023/05/13 14:55:49;;;;;;;3.15;2.80;;;;;;;19.11;61.59;99237.06;7398560;39;20243;31
2023/05/13 15:01:25;;;;;;;3.03;2.47;;;;;;;18.90;61.46;99239.09;7381163;39;20364;31
2023/05/13 15:07:00;;;;;;;3.45;2.20;;;;;;;18.76;62.20;99248.41;7305423;39;20264;31
2023/05/13 15:12:32;;;;;;;3.53;2.37;;;;;;;18.63;60.60;99242.16;7359563;39;20283;31
2023/05/13 15:18:05;;;;;;;5.80;2.50;;;;;;;18.62;60.59;99235.03;7348778;39;21909;31
2023/05/13 15:23:40;;;;;;;2.50;2.30;;;;;;;18.88;59.90;99237.63;7377699;39;21215;31
2023/05/13 15:28:58;;;;;;;2.53;2.33;;;;;;;18.97;59.90;99235.47;7366997;39;20258;31
2023/05/13 15:34:31;;;;;;;3.23;2.37;;;;;;;18.84;59.12;99226.31;7424016;39;21231;31
2023/05/13 15:39:52;;;;;;;2.65;2.30;;;;;;;18.62;59.64;99233.13;7399478;39;21965;31
2023/05/13 15:45:09;;;;;;;5.85;2.40;;;;;;;18.77;59.53;99228.25;7394311;39;20513;31
2023/05/13 15:50:45;;;;;;;2.85;2.45;;;;;;;19.01;59.57;99221.16;7378645;39;20430;31
2023/05/13 15:56:22;;;;;;;2.97;2.67;;;;;;;19.32;58.49;99212.94;7425542;39;22219;31
2023/05/13 16:01:42;;;;;;;2.47;2.28;;;;;;;19.14;58.52;99222.94;7358171;39;21163;31
2023/05/13 16:07:17;;;;;;;2.80;2.50;;;;;;;18.91;59.47;99215.34;7376102;39;21213;31
2023/05/13 16:12:49;;;;;;;4.40;2.40;;;;;;;18.97;59.54;99216.34;7413072;39;20345;31
2023/05/13 16:18:09;;;;;;;3.07;2.40;;;;;;;18.89;59.47;99217.44;7415241;39;21329;31
2023/05/13 16:23:43;;;;;;;2.30;2.10;;;;;;;18.76;60.39;99206.59;7483275;39;21450;31
2023/05/13 16:29:00;;;;;;;3.00;2.43;;;;;;;18.77;60.69;99209.13;7460220;39;21948;31
2023/05/13 16:34:35;;;;;;;3.70;2.40;;;;;;;18.70;59.92;99202.84;7472403;39;20248;31
2023/05/13 16:40:09;;;;;;;3.00;2.70;;;;;;;18.63;60.98;99212.12;7484215;39;21285;31
2023/05/13 16:45:41;;;;;;;3.80;2.70;;;;;;;18.60;61.25;99216.16;7463725;39;20356;31
2023/05/13 16:50:58;;;;;;;4.30;2.80;;;;;;;18.50;61.22;99215.75;7400143;39;20266;31
2023/05/13 16:56:35;;;;;;;3.00;2.70;;;;;;;18.41;62.10;99209.69;7446905;39;21145;31
2023/05/13 17:01:56;;;;;;;3.93;2.67;;;;;;;18.48;62.08;99206.91;7464009;39;20353;31
2023/05/13 17:07:14;;;;;;;4.60;2.80;;;;;;;18.51;61.73;99201.03;7419559;39;21292;31
2023/05/13 17:12:49;;;;;;;4.53;2.70;;;;;;;18.45;62.40;99207.38;7408343;39;21253;31
2023/05/13 17:18:21;;;;;;;3.10;2.80;;;;;;;18.48;61.93;99210.50;7420840;39;20254;31
2023/05/13 17:23:57;;;;;;;4.70;2.80;;;;;;;18.40;61.50;99201.72;7453652;38;20241;31
2023/05/13 17:29:34;;;;;;;3.03;2.73;;;;;;;18.36;62.37;99203.19;7471708;39;20253;31
2023/05/13 17:35:11;;;;;;;3.43;2.70;;;;;;;18.32;62.60;99211.00;7489626;38;20238;31
2023/05/13 17:40:28;;;;;;;3.03;2.70;;;;;;;18.31;63.07;99213.91;7317109;39;21300;31
2023/05/13 17:46:03;;;;;;;3.60;2.83;;;;;;;18.20;62.53;99211.88;7422311;39;21318;31
2023/05/13 17:56:40;;;;;;;5.17;3.20;;;;;;;18.09;63.34;99227.00;7420561;39;20266;31
2023/05/13 18:02:19;;;;;;;4.33;3.00;;;;;;;17.80;64.23;99232.97;7464486;39;21270;31
2023/05/13 18:07:48;;;;;;;3.60;2.30;;;;;;;17.60;65.53;99230.25;7390331;39;20564;31
2023/05/13 18:13:09;;;;;;;3.37;2.87;;;;;;;17.59;66.15;99231.31;7421319;39;20273;31
2023/05/13 18:18:47;;;;;;;5.33;3.17;;;;;;;17.54;66.82;99231.91;7398601;39;20297;31
2023/05/13 18:24:22;;;;;;;3.33;3.03;;;;;;;17.43;66.66;99234.41;7443801;39;20254;31
2023/05/13 18:29:39;;;;;;;3.53;3.10;;;;;;;17.28;68.25;99234.62;7463169;39;20278;31
2023/05/13 18:35:18;;;;;;;3.93;3.30;;;;;;;17.23;69.86;99241.75;7421514;39;20344;31
2023/05/13 18:45:37;;;;;;;3.70;2.80;;;;;;;17.10;69.30;99248.88;7412964;39;20298;31
2023/05/13 18:51:15;;;;;;;3.40;3.00;;;;;;;16.99;69.26;99244.00;7440128;39;21456;31
2023/05/13 18:57:01;;;;;;;3.10;2.70;;;;;;;16.89;70.15;99248.19;7388175;39;21369;31
2023/05/13 19:07:39;;;;;;;3.83;2.80;;;;;;;16.54;71.01;99271.91;7407085;39;20558;31
2023/05/13 19:13:18;;;;;;;3.57;2.90;;;;;;;16.36;71.40;99277.91;7407142;39;21130;31
2023/05/13 19:23:50;;;;;;;3.40;3.10;;;;;;;16.21;72.17;99288.91;7440350;39;20281;31
2023/05/13 19:34:30;;;;;;;4.70;3.40;;;;;;;16.10;72.39;99300.31;7515302;38;20262;31
2023/05/13 19:45:09;;;;;;;3.40;3.00;;;;;;;15.95;73.93;99313.19;7440681;39;20365;31
2023/05/13 19:55:44;;;;;;;4.77;3.20;;;;;;;16.02;73.71;99318.66;7473113;38;20349;31
2023/05/13 20:06:23;;;;;;;3.70;3.30;;;;;;;15.87;73.97;99313.34;7514202;38;20269;31
2023/05/13 20:16:43;;;;;;;3.57;3.10;;;;;;;15.98;73.55;99322.81;7379272;39;20267;31
2023/05/13 20:22:13;;;;;;;5.35;3.35;;;;;;;15.81;74.82;99322.28;7357441;39;20359;31
2023/05/13 20:27:33;;;;;;;4.50;3.80;;;;;;;15.81;75.44;99333.16;7344016;39;21228;31
2023/05/13 20:32:54;;;;;;;6.27;3.57;;;;;;;15.77;76.24;99329.16;7322050;39;20268;31
2023/05/13 20:38:26;;;;;;;4.40;3.57;;;;;;;15.59;76.15;99326.06;7379932;39;20251;31
2023/05/13 20:43:45;;;;;;;5.40;3.70;;;;;;;15.61;76.08;99327.56;7364794;39;21299;31
2023/05/13 20:49:17;;;;;;;3.93;3.53;;;;;;;15.58;76.66;99317.06;7411735;39;21284;31
2023/05/13 20:54:51;;;;;;;4.67;3.43;;;;;;;15.52;76.87;99312.44;7356052;39;21247;31
2023/05/13 21:00:11;;;;;;;8.40;3.50;;;;;;;15.53;76.03;99316.00;7384721;39;21281;31
2023/05/13 21:05:43;;;;;;;3.57;3.27;;;;;;;15.44;76.10;99312.56;7425119;39;20262;31
2023/05/13 21:11:18;;;;;;;3.80;3.20;;;;;;;15.48;77.02;99302.13;7439310;39;21191;31
2023/05/13 21:16:54;;;;;;;4.00;3.40;;;;;;;15.48;76.50;99311.12;7451465;39;20246;31
2023/05/13 21:22:30;;;;;;;4.97;3.30;;;;;;;15.26;77.08;99310.28;7508995;38;20288;31
2023/05/13 21:28:04;;;;;;;4.27;3.40;;;;;;;15.17;76.42;99310.59;7439740;39;21229;31
2023/05/13 21:33:25;;;;;;;8.05;3.45;;;;;;;15.14;77.29;99313.69;7461235;39;20294;31
2023/05/13 21:38:42;;;;;;;4.53;3.90;;;;;;;15.17;76.51;99308.72;7380261;39;20372;31
2023/05/13 21:44:15;;;;;;;6.53;3.63;;;;;;;15.07;76.87;99304.62;7371074;39;20330;31
2023/05/13 21:49:48;;;;;;;3.80;3.25;;;;;;;15.06;76.56;99313.81;7396910;39;21422;31
2023/05/13 21:55:07;;;;;;;5.03;3.93;;;;;;;15.00;77.34;99301.03;7230451;39;21301;31
2023/05/13 22:00:40;;;;;;;3.80;3.43;;;;;;;14.95;77.13;99288.03;7482048;38;20237;31
2023/05/13 22:05:57;;;;;;;4.87;3.60;;;;;;;14.91;76.37;99292.16;7440744;39;20265;31
2023/05/13 22:11:15;;;;;;;3.70;3.40;;;;;;;14.79;77.07;99290.97;7421148;39;21325;31
2023/05/13 22:16:46;;;;;;;4.73;4.13;;;;;;;14.65;78.03;99281.84;7434781;39;20263;31
2023/05/13 22:27:26;;;;;;;5.43;3.83;;;;;;;14.45;78.32;99280.75;7512872;38;20272;31
2023/05/13 22:38:07;;;;;;;5.77;4.40;;;;;;;14.23;78.58;99273.53;7517883;38;20363;31
2023/05/13 22:48:44;;;;;;;5.83;4.50;;;;;;;14.15;79.17;99271.78;7421384;39;20407;31
2023/05/13 22:54:17;;;;;;;5.50;4.80;;;;;;;14.24;79.36;99267.09;7440102;39;20386;31
2023/05/13 23:04:39;;;;;;;6.05;4.50;;;;;;;14.13;78.99;99260.25;7379417;39;20270;31
2023/05/13 23:10:16;;;;;;;5.20;4.20;;;;;;;14.06;79.51;99259.34;7484441;38;20261;31
2023/05/13 23:15:48;;;;;;;5.27;4.50;;;;;;;14.13;78.91;99248.59;7399330;39;20258;31
2023/05/13 23:21:07;;;;;;;4.33;3.93;;;;;;;14.11;78.85;99251.50;7421163;39;21238;31
2023/05/13 23:31:44;;;;;;;4.40;3.70;;;;;;;13.99;79.27;99234.03;7440181;39;20254;31
2023/05/13 23:42:09;;;;;;;5.77;4.13;;;;;;;13.89;78.98;99219.91;7514352;38;20268;31
2023/05/13 23:47:46;;;;;;;5.10;4.60;;;;;;;13.71;79.33;99224.84;7511625;38;20475;31
2023/05/13 23:58:26;;;;;;;5.43;3.93;;;;;;;13.83;78.60;99218.78;7513992;38;21109;31
